CFE909 EHRD-EGLC
Flight info
| Callsign | CFE909 |
|---|---|
| Flight time | 0h 42m |
| Altitude | 20000 |
| Route | SOMEL2A ABNED L980 XAMAN XAMAN1C |
| Aircraft | E190/M-SDE2E3GHIJ1LORVWXY/SB1 |
Departure
| Time | 2026-05-05 10:43 |
|---|---|
| Airport | Rotterdam The Hague Airport (EHRD) |
Arrival
| Time | 2026-05-05 11:25 |
|---|---|
| Airport | London City Airport (EGLC) |
| Time | Latitude | Longitude | Altitude | Speed | Heading |
|---|---|---|---|---|---|
| 2026-05-05 10:29 | 51.95165 | 4.43348 | -7 ft | 0 kts | 327° |
| 2026-05-05 10:40 | 51.95168 | 4.43345 | -7 ft | 2 kts | 328° |
| 2026-05-05 10:40 | 51.95188 | 4.43316 | -7 ft | 4 kts | 306° |
| 2026-05-05 10:40 | 51.95180 | 4.43251 | -7 ft | 8 kts | 249° |
| 2026-05-05 10:40 | 51.95150 | 4.43167 | -7 ft | 10 kts | 241° |
| 2026-05-05 10:41 | 51.95115 | 4.43050 | -6 ft | 12 kts | 247° |
| 2026-05-05 10:41 | 51.95130 | 4.42936 | -6 ft | 11 kts | 313° |
| 2026-05-05 10:41 | 51.95194 | 4.42867 | -6 ft | 10 kts | 342° |
| 2026-05-05 10:41 | 51.95240 | 4.42911 | -6 ft | 0 kts | 53° |
| 2026-05-05 10:42 | 51.95433 | 4.43385 | -6 ft | 78 kts | 58° |
| 2026-05-05 10:42 | 51.95824 | 4.44366 | -4 ft | 127 kts | 57° |
| 2026-05-05 10:42 | 51.96363 | 4.45678 | 279 ft | 144 kts | 55° |
| 2026-05-05 10:43 | 51.96944 | 4.47005 | 1074 ft | 149 kts | 53° |
| 2026-05-05 10:43 | 51.97544 | 4.48485 | 1861 ft | 163 kts | 58° |
| 2026-05-05 10:43 | 51.98072 | 4.50244 | 2606 ft | 184 kts | 65° |
| 2026-05-05 10:43 | 51.98837 | 4.52009 | 3352 ft | 204 kts | 40° |
| 2026-05-05 10:44 | 52.00182 | 4.52959 | 4192 ft | 220 kts | 8° |
| 2026-05-05 10:44 | 52.01712 | 4.52706 | 5375 ft | 231 kts | 341° |
| 2026-05-05 10:44 | 52.03068 | 4.51116 | 6198 ft | 255 kts | 306° |
| 2026-05-05 10:44 | 52.03721 | 4.48374 | 7129 ft | 271 kts | 274° |
| 2026-05-05 10:45 | 52.03369 | 4.45369 | 8333 ft | 277 kts | 243° |
| 2026-05-05 10:45 | 52.02110 | 4.42986 | 9564 ft | 284 kts | 218° |
| 2026-05-05 10:45 | 52.00448 | 4.41120 | 10553 ft | 298 kts | 214° |
| 2026-05-05 10:45 | 51.98775 | 4.39000 | 11355 ft | 314 kts | 229° |
| 2026-05-05 10:46 | 51.97625 | 4.35965 | 12385 ft | 319 kts | 245° |
| 2026-05-05 10:46 | 51.96792 | 4.32597 | 13479 ft | 324 kts | 251° |
| 2026-05-05 10:46 | 51.96106 | 4.29055 | 14359 ft | 334 kts | 253° |
| 2026-05-05 10:46 | 51.95523 | 4.25381 | 15260 ft | 343 kts | 258° |
| 2026-05-05 10:47 | 51.95169 | 4.21504 | 16194 ft | 343 kts | 261° |
| 2026-05-05 10:47 | 51.94817 | 4.17670 | 17263 ft | 346 kts | 260° |
| 2026-05-05 10:47 | 51.94461 | 4.13792 | 18162 ft | 350 kts | 260° |
| 2026-05-05 10:47 | 51.94141 | 4.09856 | 18965 ft | 354 kts | 261° |
| 2026-05-05 10:48 | 51.93819 | 4.05886 | 19660 ft | 360 kts | 260° |
| 2026-05-05 10:48 | 51.93480 | 4.01794 | 19804 ft | 382 kts | 261° |
| 2026-05-05 10:48 | 51.93120 | 3.97369 | 19899 ft | 390 kts | 261° |
| 2026-05-05 10:48 | 51.92779 | 3.93163 | 19913 ft | 366 kts | 261° |
| 2026-05-05 10:49 | 51.92445 | 3.89166 | 19916 ft | 354 kts | 260° |
| 2026-05-05 10:49 | 51.92113 | 3.85211 | 19926 ft | 356 kts | 260° |
| 2026-05-05 10:49 | 51.91776 | 3.81224 | 19938 ft | 359 kts | 260° |
| 2026-05-05 10:49 | 51.91442 | 3.77229 | 19951 ft | 358 kts | 260° |
| 2026-05-05 10:50 | 51.91106 | 3.73269 | 19948 ft | 359 kts | 261° |
| 2026-05-05 10:50 | 51.90772 | 3.69276 | 19952 ft | 359 kts | 260° |
| 2026-05-05 10:50 | 51.90426 | 3.65241 | 19957 ft | 357 kts | 260° |
| 2026-05-05 10:50 | 51.90081 | 3.61245 | 19960 ft | 359 kts | 261° |
| 2026-05-05 10:51 | 51.89740 | 3.57247 | 19957 ft | 359 kts | 259° |
| 2026-05-05 10:51 | 51.89393 | 3.53242 | 19950 ft | 360 kts | 261° |
| 2026-05-05 10:51 | 51.89052 | 3.49251 | 19965 ft | 359 kts | 260° |
| 2026-05-05 10:51 | 51.88705 | 3.45264 | 19967 ft | 357 kts | 259° |
| 2026-05-05 10:52 | 51.88350 | 3.41288 | 19960 ft | 359 kts | 259° |
| 2026-05-05 10:52 | 51.88001 | 3.37288 | 19964 ft | 360 kts | 260° |
| 2026-05-05 10:52 | 51.87651 | 3.33288 | 19958 ft | 359 kts | 261° |
| 2026-05-05 10:52 | 51.87305 | 3.29346 | 19973 ft | 359 kts | 260° |
| 2026-05-05 10:53 | 51.86945 | 3.25305 | 19978 ft | 358 kts | 259° |
| 2026-05-05 10:53 | 51.86588 | 3.21324 | 19974 ft | 359 kts | 260° |
| 2026-05-05 10:53 | 51.86237 | 3.17383 | 19969 ft | 358 kts | 260° |
| 2026-05-05 10:53 | 51.85878 | 3.13382 | 19969 ft | 359 kts | 260° |
| 2026-05-05 10:54 | 51.85525 | 3.09394 | 19960 ft | 359 kts | 260° |
| 2026-05-05 10:54 | 51.85160 | 3.05407 | 19961 ft | 358 kts | 260° |
| 2026-05-05 10:54 | 51.84795 | 3.01423 | 19960 ft | 359 kts | 260° |
| 2026-05-05 10:54 | 51.84433 | 2.97438 | 19959 ft | 359 kts | 259° |
| 2026-05-05 10:55 | 51.84066 | 2.93448 | 19960 ft | 360 kts | 259° |
| 2026-05-05 10:55 | 51.83704 | 2.89460 | 19958 ft | 359 kts | 259° |
| 2026-05-05 10:55 | 51.83339 | 2.85483 | 19947 ft | 357 kts | 259° |
| 2026-05-05 10:55 | 51.82964 | 2.81520 | 19306 ft | 357 kts | 259° |
| 2026-05-05 10:56 | 51.82594 | 2.77516 | 18319 ft | 366 kts | 259° |
| 2026-05-05 10:56 | 51.82216 | 2.73459 | 17588 ft | 363 kts | 259° |
| 2026-05-05 10:56 | 51.81803 | 2.69447 | 16892 ft | 360 kts | 259° |
| 2026-05-05 10:56 | 51.81505 | 2.65450 | 16219 ft | 357 kts | 262° |
| 2026-05-05 10:57 | 51.81219 | 2.61488 | 15564 ft | 353 kts | 262° |
| 2026-05-05 10:57 | 51.80951 | 2.57563 | 14927 ft | 350 kts | 263° |
| 2026-05-05 10:57 | 51.80683 | 2.53665 | 14307 ft | 347 kts | 263° |
| 2026-05-05 10:57 | 51.80406 | 2.49813 | 13697 ft | 344 kts | 261° |
| 2026-05-05 10:58 | 51.80147 | 2.46016 | 13238 ft | 335 kts | 266° |
| 2026-05-05 10:58 | 51.80101 | 2.42282 | 12634 ft | 331 kts | 271° |
| 2026-05-05 10:58 | 51.80162 | 2.38577 | 12140 ft | 326 kts | 271° |
| 2026-05-05 10:58 | 51.80211 | 2.35006 | 11955 ft | 311 kts | 271° |
| 2026-05-05 10:59 | 51.80099 | 2.31470 | 11805 ft | 326 kts | 258° |
| 2026-05-05 10:59 | 51.79450 | 2.27961 | 11885 ft | 334 kts | 253° |
| 2026-05-05 10:59 | 51.78859 | 2.24286 | 11939 ft | 333 kts | 257° |
| 2026-05-05 10:59 | 51.78419 | 2.20638 | 11961 ft | 337 kts | 263° |
| 2026-05-05 11:00 | 51.78166 | 2.16885 | 11973 ft | 337 kts | 264° |
| 2026-05-05 11:00 | 51.77943 | 2.13126 | 11973 ft | 337 kts | 265° |
| 2026-05-05 11:00 | 51.77719 | 2.09370 | 11969 ft | 337 kts | 264° |
| 2026-05-05 11:00 | 51.77500 | 2.05693 | 11973 ft | 336 kts | 264° |
| 2026-05-05 11:01 | 51.77276 | 2.01924 | 11968 ft | 337 kts | 264° |
| 2026-05-05 11:01 | 51.77057 | 1.98258 | 11960 ft | 318 kts | 264° |
| 2026-05-05 11:01 | 51.76848 | 1.94799 | 11944 ft | 303 kts | 264° |
| 2026-05-05 11:01 | 51.76465 | 1.91477 | 11479 ft | 303 kts | 249° |
| 2026-05-05 11:02 | 51.75557 | 1.88419 | 11061 ft | 300 kts | 242° |
| 2026-05-05 11:02 | 51.74568 | 1.85496 | 10785 ft | 293 kts | 241° |
| 2026-05-05 11:02 | 51.73573 | 1.82654 | 10612 ft | 291 kts | 240° |
| 2026-05-05 11:02 | 51.72568 | 1.79809 | 10464 ft | 293 kts | 241° |
| 2026-05-05 11:03 | 51.71653 | 1.76867 | 10322 ft | 293 kts | 245° |
| 2026-05-05 11:03 | 51.70801 | 1.73886 | 10124 ft | 293 kts | 246° |
| 2026-05-05 11:03 | 51.69964 | 1.70907 | 9907 ft | 291 kts | 246° |
| 2026-05-05 11:03 | 51.69134 | 1.67945 | 9671 ft | 290 kts | 246° |
| 2026-05-05 11:04 | 51.68307 | 1.64986 | 9429 ft | 288 kts | 246° |
| 2026-05-05 11:04 | 51.67480 | 1.62046 | 9194 ft | 287 kts | 246° |
| 2026-05-05 11:04 | 51.66934 | 1.60108 | 9083 ft | 286 kts | 246° |
| 2026-05-05 11:04 | 51.65834 | 1.56208 | 8997 ft | 286 kts | 246° |
| 2026-05-05 11:05 | 51.65020 | 1.53320 | 8958 ft | 287 kts | 246° |
| 2026-05-05 11:05 | 51.64191 | 1.50389 | 8903 ft | 287 kts | 246° |
| 2026-05-05 11:05 | 51.63365 | 1.47471 | 8856 ft | 287 kts | 246° |
| 2026-05-05 11:05 | 51.62540 | 1.44558 | 8805 ft | 286 kts | 246° |
| 2026-05-05 11:06 | 51.61708 | 1.41642 | 8685 ft | 288 kts | 246° |
| 2026-05-05 11:06 | 51.61146 | 1.39663 | 8578 ft | 286 kts | 246° |
| 2026-05-05 11:06 | 51.60320 | 1.36754 | 8422 ft | 285 kts | 246° |
| 2026-05-05 11:06 | 51.59492 | 1.33847 | 8267 ft | 285 kts | 246° |
| 2026-05-05 11:07 | 51.58667 | 1.30954 | 8117 ft | 284 kts | 246° |
| 2026-05-05 11:07 | 51.57847 | 1.28076 | 7964 ft | 283 kts | 246° |
| 2026-05-05 11:07 | 51.57021 | 1.25202 | 7814 ft | 284 kts | 246° |
| 2026-05-05 11:07 | 51.56201 | 1.22324 | 7657 ft | 283 kts | 246° |
| 2026-05-05 11:08 | 51.55375 | 1.19447 | 7510 ft | 283 kts | 246° |
| 2026-05-05 11:08 | 51.54556 | 1.16582 | 7358 ft | 281 kts | 247° |
| 2026-05-05 11:08 | 51.53743 | 1.13763 | 7213 ft | 281 kts | 246° |
| 2026-05-05 11:08 | 51.52914 | 1.10879 | 7071 ft | 280 kts | 246° |
| 2026-05-05 11:09 | 51.52093 | 1.08035 | 6918 ft | 280 kts | 246° |
| 2026-05-05 11:09 | 51.51276 | 1.05197 | 6772 ft | 281 kts | 246° |
| 2026-05-05 11:09 | 51.50454 | 1.02350 | 6635 ft | 280 kts | 246° |
| 2026-05-05 11:09 | 51.49651 | 0.99558 | 6530 ft | 280 kts | 246° |
| 2026-05-05 11:10 | 51.48834 | 0.96739 | 6420 ft | 277 kts | 246° |
| 2026-05-05 11:10 | 51.48174 | 0.93845 | 6272 ft | 277 kts | 263° |
| 2026-05-05 11:10 | 51.48345 | 0.90798 | 6137 ft | 275 kts | 287° |
| 2026-05-05 11:10 | 51.48954 | 0.87895 | 6059 ft | 275 kts | 291° |
| 2026-05-05 11:11 | 51.49623 | 0.85033 | 6020 ft | 274 kts | 292° |
| 2026-05-05 11:11 | 51.50308 | 0.82173 | 6006 ft | 278 kts | 293° |
| 2026-05-05 11:11 | 51.50995 | 0.79302 | 5994 ft | 275 kts | 293° |
| 2026-05-05 11:11 | 51.51692 | 0.76440 | 6000 ft | 275 kts | 293° |
| 2026-05-05 11:12 | 51.52393 | 0.73585 | 6004 ft | 275 kts | 293° |
| 2026-05-05 11:12 | 51.53096 | 0.70727 | 5999 ft | 275 kts | 293° |
| 2026-05-05 11:12 | 51.53800 | 0.67879 | 5998 ft | 274 kts | 293° |
| 2026-05-05 11:12 | 51.54501 | 0.65037 | 6016 ft | 274 kts | 293° |
| 2026-05-05 11:13 | 51.55201 | 0.62184 | 6004 ft | 275 kts | 293° |
| 2026-05-05 11:13 | 51.55886 | 0.59313 | 6000 ft | 276 kts | 290° |
| 2026-05-05 11:13 | 51.56077 | 0.56264 | 5983 ft | 278 kts | 261° |
| 2026-05-05 11:13 | 51.55319 | 0.53432 | 5997 ft | 283 kts | 231° |
| 2026-05-05 11:14 | 51.53882 | 0.51280 | 5600 ft | 287 kts | 218° |
| 2026-05-05 11:14 | 51.52294 | 0.49444 | 5516 ft | 283 kts | 215° |
| 2026-05-05 11:14 | 51.50779 | 0.47533 | 5884 ft | 276 kts | 220° |
| 2026-05-05 11:14 | 51.49359 | 0.45279 | 5685 ft | 292 kts | 230° |
| 2026-05-05 11:15 | 51.48190 | 0.42661 | 5623 ft | 284 kts | 235° |
| 2026-05-05 11:15 | 51.47092 | 0.40060 | 5362 ft | 278 kts | 236° |
| 2026-05-05 11:15 | 51.46057 | 0.37549 | 5154 ft | 263 kts | 236° |
| 2026-05-05 11:15 | 51.45071 | 0.35154 | 4862 ft | 252 kts | 236° |
| 2026-05-05 11:16 | 51.44102 | 0.32871 | 4563 ft | 244 kts | 233° |
| 2026-05-05 11:16 | 51.43146 | 0.30667 | 4129 ft | 240 kts | 243° |
| 2026-05-05 11:16 | 51.42726 | 0.28121 | 3679 ft | 234 kts | 274° |
| 2026-05-05 11:16 | 51.43057 | 0.25666 | 3171 ft | 231 kts | 295° |
| 2026-05-05 11:17 | 51.43704 | 0.23280 | 2956 ft | 224 kts | 294° |
| 2026-05-05 11:17 | 51.43862 | 0.20872 | 2895 ft | 215 kts | 258° |
| 2026-05-05 11:17 | 51.43456 | 0.18728 | 2858 ft | 193 kts | 266° |
| 2026-05-05 11:17 | 51.43505 | 0.16648 | 2826 ft | 182 kts | 280° |
| 2026-05-05 11:18 | 51.43662 | 0.14637 | 2706 ft | 181 kts | 280° |
| 2026-05-05 11:18 | 51.43805 | 0.12664 | 2445 ft | 178 kts | 280° |
| 2026-05-05 11:18 | 51.43867 | 0.10663 | 2114 ft | 178 kts | 276° |
| 2026-05-05 11:18 | 51.43851 | 0.08693 | 2045 ft | 181 kts | 263° |
| 2026-05-05 11:19 | 51.43683 | 0.06670 | 2029 ft | 182 kts | 277° |
| 2026-05-05 11:19 | 51.43791 | 0.04666 | 2003 ft | 181 kts | 281° |
| 2026-05-05 11:19 | 51.43953 | 0.02683 | 1996 ft | 177 kts | 281° |
| 2026-05-05 11:19 | 51.44071 | 0.00716 | 1984 ft | 182 kts | 277° |
| 2026-05-05 11:20 | 51.44134 | -0.01261 | 2001 ft | 168 kts | 275° |
| 2026-05-05 11:20 | 51.44169 | -0.03082 | 1979 ft | 163 kts | 275° |
| 2026-05-05 11:20 | 51.44211 | -0.04940 | 2006 ft | 169 kts | 276° |
| 2026-05-05 11:20 | 51.44194 | -0.06809 | 2008 ft | 168 kts | 264° |
| 2026-05-05 11:21 | 51.44267 | -0.08636 | 2040 ft | 164 kts | 298° |
| 2026-05-05 11:21 | 51.45048 | -0.09851 | 2027 ft | 156 kts | 341° |
| 2026-05-05 11:21 | 51.46054 | -0.10523 | 2026 ft | 157 kts | 335° |
| 2026-05-05 11:21 | 51.47074 | -0.11065 | 2030 ft | 157 kts | 352° |
| 2026-05-05 11:22 | 51.48145 | -0.11257 | 2006 ft | 155 kts | 358° |
| 2026-05-05 11:22 | 51.49211 | -0.11344 | 2000 ft | 152 kts | 0° |
| 2026-05-05 11:22 | 51.50257 | -0.11053 | 1984 ft | 151 kts | 30° |
| 2026-05-05 11:22 | 51.50864 | -0.09722 | 2007 ft | 156 kts | 75° |
| 2026-05-05 11:23 | 51.50892 | -0.07952 | 2032 ft | 165 kts | 89° |
| 2026-05-05 11:23 | 51.50863 | -0.06135 | 2039 ft | 161 kts | 86° |
| 2026-05-05 11:23 | 51.50830 | -0.04357 | 2020 ft | 160 kts | 89° |
| 2026-05-05 11:23 | 51.50765 | -0.02543 | 1732 ft | 158 kts | 88° |
| 2026-05-05 11:24 | 51.50718 | -0.00917 | 1369 ft | 139 kts | 88° |
| 2026-05-05 11:24 | 51.50667 | 0.00591 | 909 ft | 132 kts | 89° |
| 2026-05-05 11:24 | 51.50620 | 0.02008 | 591 ft | 126 kts | 89° |
| 2026-05-05 11:24 | 51.50576 | 0.03431 | 296 ft | 129 kts | 85° |
| 2026-05-05 11:25 | 51.50540 | 0.04795 | 31 ft | 114 kts | 89° |
| 2026-05-05 11:25 | 51.50508 | 0.05815 | 24 ft | 66 kts | 93° |
| 2026-05-05 11:25 | 51.50496 | 0.06064 | 24 ft | 1 kts | 144° |
| 2026-05-05 11:25 | 51.50483 | 0.06053 | 27 ft | 6 kts | 205° |
| 2026-05-05 11:26 | 51.50440 | 0.05992 | 24 ft | 0 kts | 234° |
| 2026-05-05 11:26 | 51.50439 | 0.05992 | 24 ft | 0 kts | 234° |
| 2026-05-05 11:26 | 51.50428 | 0.05955 | 24 ft | 8 kts | 251° |
| 2026-05-05 11:26 | 51.50428 | 0.05846 | 24 ft | 10 kts | 273° |
| 2026-05-05 11:27 | 51.50432 | 0.05718 | 24 ft | 13 kts | 272° |
| 2026-05-05 11:27 | 51.50437 | 0.05567 | 24 ft | 15 kts | 274° |
| 2026-05-05 11:27 | 51.50442 | 0.05394 | 24 ft | 17 kts | 272° |
| 2026-05-05 11:27 | 51.50448 | 0.05205 | 24 ft | 16 kts | 272° |
| 2026-05-05 11:28 | 51.50460 | 0.05032 | 24 ft | 15 kts | 277° |
| 2026-05-05 11:28 | 51.50466 | 0.04863 | 24 ft | 15 kts | 270° |
| 2026-05-05 11:28 | 51.50449 | 0.04779 | 26 ft | 0 kts | 183° |
| 2026-05-05 11:28 | 51.50438 | 0.04770 | 24 ft | 2 kts | 232° |
| 2026-05-05 11:29 | 51.50442 | 0.04762 | 24 ft | 0 kts | 294° |